createdAt,value
2022-08-22T00:00:47.092Z,39.54
2022-08-22T00:01:51.769Z,39.58
2022-08-22T00:02:42.671Z,46.57
2022-08-22T00:02:54.356Z,39.73
2022-08-22T00:03:03.867Z,38.94
2022-08-22T00:03:07.844Z,41.27
2022-08-22T00:03:17.593Z,39.56
2022-08-22T00:03:59.608Z,39.68
2022-08-22T00:05:01.867Z,39.63
2022-08-22T00:06:04.023Z,39.76
2022-08-22T00:07:05.876Z,39.76
2022-08-22T00:08:08.031Z,39.87
2022-08-22T00:09:09.885Z,39.95
2022-08-22T00:10:13.070Z,39.85
2022-08-22T00:11:16.753Z,39.97
2022-08-22T00:12:18.605Z,39.85
2022-08-22T00:13:20.453Z,39.71
2022-08-22T00:14:22.411Z,39.80
2022-08-22T00:15:42.170Z,39.96
2022-08-22T00:16:28.324Z,39.82
2022-08-22T00:17:30.190Z,39.82
2022-08-22T00:18:32.030Z,39.86
2022-08-22T00:19:33.982Z,39.99
2022-08-22T00:20:36.376Z,39.85
2022-08-22T00:21:38.219Z,39.83
2022-08-22T00:22:41.920Z,40.06
2022-08-22T00:23:43.776Z,40.04
2022-08-22T00:24:45.719Z,40.01
2022-08-22T00:25:47.679Z,39.93
2022-08-22T00:26:49.730Z,39.69
2022-08-22T00:27:51.681Z,39.67
2022-08-22T00:28:53.633Z,39.73
2022-08-22T00:29:55.481Z,39.47
2022-08-22T00:30:57.743Z,39.55
2022-08-22T00:31:59.695Z,39.60
2022-08-22T00:33:01.650Z,39.51
2022-08-22T00:34:03.601Z,39.50
2022-08-22T00:35:05.553Z,39.50
2022-08-22T00:36:08.429Z,39.56
2022-08-22T00:37:10.284Z,39.66
2022-08-22T00:38:12.433Z,39.70
2022-08-22T00:39:14.287Z,39.70
2022-08-22T00:40:17.070Z,39.53
2022-08-22T00:41:19.422Z,39.71
2022-08-22T00:42:29.393Z,39.84
2022-08-22T00:43:25.078Z,39.84
2022-08-22T00:44:27.015Z,39.93
2022-08-22T00:45:28.971Z,39.82
2022-08-22T00:46:31.844Z,39.82
2022-08-22T00:47:33.797Z,39.88
2022-08-22T00:48:35.747Z,39.98
2022-08-22T00:49:38.006Z,39.74
2022-08-22T00:50:39.961Z,39.87
2022-08-22T00:51:41.913Z,39.82
2022-08-22T00:52:45.094Z,39.80
2022-08-22T00:53:47.044Z,39.81
2022-08-22T00:54:48.996Z,39.70
2022-08-22T00:55:50.848Z,39.66
2022-08-22T00:56:53.005Z,39.65
2022-08-22T00:57:54.847Z,39.65
2022-08-22T00:58:56.707Z,39.83
2022-08-22T00:59:58.656Z,39.81
2022-08-22T01:01:00.750Z,39.80
2022-08-22T01:02:02.767Z,39.77
2022-08-22T01:03:04.924Z,39.63
2022-08-22T01:04:06.799Z,39.55
2022-08-22T01:05:08.726Z,39.64
2022-08-22T01:06:10.988Z,39.60
2022-08-22T01:07:12.943Z,39.78
2022-08-22T01:08:14.790Z,39.79
2022-08-22T01:09:16.744Z,39.62
2022-08-22T01:10:19.717Z,39.62
2022-08-22T01:11:21.568Z,39.72
2022-08-22T01:12:23.521Z,39.75
2022-08-22T01:13:25.377Z,39.78
2022-08-22T01:14:34.646Z,39.57
2022-08-22T01:15:31.016Z,39.63
2022-08-22T01:16:33.177Z,39.46
2022-08-22T01:17:35.128Z,39.57
2022-08-22T01:18:37.081Z,39.64
2022-08-22T01:19:39.028Z,39.77
2022-08-22T01:20:41.088Z,39.89
2022-08-22T01:21:43.244Z,39.79
2022-08-22T01:22:45.197Z,39.81
2022-08-22T01:23:47.150Z,39.95
2022-08-22T01:24:49.002Z,39.76
2022-08-22T01:25:51.361Z,39.70
2022-08-22T01:26:53.417Z,39.63
2022-08-22T01:27:55.426Z,39.43
2022-08-22T01:28:57.321Z,39.58
2022-08-22T01:29:59.272Z,39.58
2022-08-22T01:31:01.765Z,39.57
2022-08-22T01:32:03.700Z,39.38
2022-08-22T01:33:05.653Z,39.52
2022-08-22T01:34:12.748Z,39.49
2022-08-22T01:35:11.404Z,39.51
2022-08-22T01:36:14.685Z,39.47
2022-08-22T01:37:16.637Z,39.28
2022-08-22T01:38:18.591Z,39.13
2022-08-22T01:39:20.548Z,39.08
2022-08-22T01:40:22.830Z,39.18
2022-08-22T01:41:25.882Z,39.30
2022-08-22T01:42:28.242Z,39.39
2022-08-22T01:43:59.389Z,39.42
2022-08-22T01:44:33.888Z,39.37
2022-08-22T01:45:35.768Z,39.50
2022-08-22T01:46:37.855Z,39.47
2022-08-22T01:47:39.857Z,39.54
2022-08-22T01:48:41.802Z,39.48
2022-08-22T01:49:43.752Z,39.52
2022-08-22T01:50:45.915Z,39.33
2022-08-22T01:51:47.862Z,39.38
2022-08-22T01:52:49.816Z,39.29
2022-08-22T01:53:51.768Z,39.28
2022-08-22T01:54:53.723Z,39.19
2022-08-22T01:55:55.668Z,39.22
2022-08-22T01:56:57.832Z,39.02
2022-08-22T01:57:59.947Z,39.08
2022-08-22T01:59:02.860Z,39.09
2022-08-22T02:00:05.335Z,39.02
2022-08-22T02:01:07.320Z,39.19
2022-08-22T02:02:09.332Z,39.19
2022-08-22T02:03:11.496Z,39.20
2022-08-22T02:04:13.441Z,38.92
2022-08-22T02:05:15.394Z,39.05
2022-08-22T02:06:17.865Z,38.95
2022-08-22T02:07:19.810Z,38.92
2022-08-22T02:08:23.606Z,38.82
2022-08-22T02:09:25.557Z,39.01
2022-08-22T02:10:28.434Z,38.96
2022-08-22T02:11:30.391Z,39.00
2022-08-22T02:12:32.339Z,39.09
2022-08-22T02:13:34.293Z,38.89
2022-08-22T02:14:36.244Z,38.86
2022-08-22T02:15:38.192Z,38.95
2022-08-22T02:16:40.355Z,38.90
2022-08-22T02:17:42.306Z,38.78
2022-08-22T02:18:44.256Z,38.95
2022-08-22T02:19:46.216Z,38.96
2022-08-22T02:20:48.368Z,38.96
2022-08-22T02:21:50.319Z,39.00
2022-08-22T02:22:54.013Z,38.96
2022-08-22T02:23:56.151Z,38.94
2022-08-22T02:24:58.533Z,38.88
2022-08-22T02:26:00.485Z,38.71
2022-08-22T02:27:02.444Z,38.79
2022-08-22T02:28:04.310Z,38.86
2022-08-22T02:29:06.174Z,38.77
2022-08-22T02:30:08.504Z,38.89
2022-08-22T02:31:10.451Z,38.96
2022-08-22T02:32:14.252Z,39.00
2022-08-22T02:33:16.200Z,38.99
2022-08-22T02:34:18.159Z,38.85
2022-08-22T02:35:20.105Z,38.88
2022-08-22T02:36:22.569Z,38.64
2022-08-22T02:37:24.529Z,38.66
2022-08-22T02:38:26.476Z,38.54
2022-08-22T02:39:28.427Z,38.68
2022-08-22T02:40:31.003Z,38.83
2022-08-22T02:41:32.947Z,38.86
2022-08-22T02:42:35.414Z,38.83
2022-08-22T02:43:37.298Z,38.79
2022-08-22T02:44:39.215Z,38.76
2022-08-22T02:45:41.167Z,38.71
2022-08-22T02:46:43.330Z,38.60
2022-08-22T02:47:45.277Z,38.60
2022-08-22T02:48:47.228Z,38.55
2022-08-22T02:49:49.183Z,38.60
2022-08-22T02:50:51.339Z,38.46
2022-08-22T02:51:54.623Z,38.57
2022-08-22T02:52:56.573Z,38.57
2022-08-22T02:53:58.526Z,38.57
2022-08-22T02:55:00.396Z,38.63
2022-08-22T02:56:02.436Z,38.58
2022-08-22T02:57:04.383Z,38.60
2022-08-22T02:58:06.747Z,38.58
2022-08-22T02:59:08.702Z,38.50
2022-08-22T03:00:30.696Z,38.50
2022-08-22T03:01:14.878Z,38.51
2022-08-22T03:02:16.810Z,38.29
2022-08-22T03:03:18.872Z,38.35
2022-08-22T03:04:20.816Z,38.30
2022-08-22T03:05:22.975Z,38.37
2022-08-22T03:06:26.257Z,38.28
2022-08-22T03:07:28.218Z,38.25
2022-08-22T03:08:30.162Z,38.44
2022-08-22T03:09:32.028Z,38.53
2022-08-22T03:10:34.066Z,38.65
2022-08-22T03:11:36.021Z,38.49
2022-08-22T03:12:37.979Z,38.51
2022-08-22T03:13:39.925Z,38.41
2022-08-22T03:14:41.876Z,38.44
2022-08-22T03:15:49.341Z,38.44
2022-08-22T03:16:47.831Z,38.55
2022-08-22T03:17:49.783Z,38.62
2022-08-22T03:18:51.734Z,38.61
2022-08-22T03:19:53.698Z,38.67
2022-08-22T03:20:55.843Z,38.45
2022-08-22T03:21:57.798Z,38.51
2022-08-22T03:23:00.079Z,38.51
2022-08-22T03:24:02.006Z,38.58
2022-08-22T03:25:03.962Z,38.50
2022-08-22T03:26:07.692Z,38.53
2022-08-22T03:27:09.915Z,38.61
2022-08-22T03:28:11.868Z,38.66
2022-08-22T03:29:13.819Z,38.74
2022-08-22T03:30:15.983Z,38.81
2022-08-22T03:31:17.929Z,38.96
2022-08-22T03:32:19.882Z,39.00
2022-08-22T03:33:21.840Z,39.04
2022-08-22T03:34:23.788Z,39.05
2022-08-22T03:35:25.739Z,38.97
2022-08-22T03:36:28.208Z,39.09
2022-08-22T03:37:30.155Z,38.98
2022-08-22T03:38:32.107Z,39.10
2022-08-22T03:39:34.057Z,39.15
2022-08-22T03:40:36.219Z,39.00
2022-08-22T03:41:41.344Z,38.97
2022-08-22T03:42:46.724Z,38.97
2022-08-22T03:43:48.618Z,39.04
2022-08-22T03:44:50.468Z,39.29
2022-08-22T03:45:52.420Z,39.24
2022-08-22T03:46:54.489Z,39.24
2022-08-22T03:47:56.443Z,39.25
2022-08-22T03:48:58.380Z,39.19
2022-08-22T03:50:00.154Z,39.35
2022-08-22T03:51:02.181Z,39.41
2022-08-22T03:52:04.135Z,39.49
2022-08-22T03:53:06.087Z,39.44
2022-08-22T03:54:09.798Z,39.49
2022-08-22T03:55:11.733Z,39.60
2022-08-22T03:56:14.407Z,39.63
2022-08-22T03:57:16.260Z,39.65
2022-08-22T03:58:27.614Z,39.61
2022-08-22T03:59:21.904Z,39.61
2022-08-22T04:00:26.048Z,39.62
2022-08-22T04:01:28.059Z,39.56
2022-08-22T04:02:43.065Z,39.62
2022-08-22T04:03:33.808Z,39.71
2022-08-22T04:04:35.757Z,39.74
2022-08-22T04:05:37.814Z,39.77
2022-08-22T04:06:41.002Z,39.80
2022-08-22T04:07:43.049Z,39.75
2022-08-22T04:08:46.843Z,39.81
2022-08-22T04:09:49.312Z,39.81
2022-08-22T04:10:53.207Z,39.86
2022-08-22T04:11:55.059Z,39.84
2022-08-22T04:12:57.009Z,39.91
2022-08-22T04:13:58.861Z,39.97
2022-08-22T04:15:00.820Z,39.89
2022-08-22T04:16:02.867Z,39.91
2022-08-22T04:17:04.825Z,39.82
2022-08-22T04:18:06.776Z,39.94
2022-08-22T04:19:10.368Z,40.02
2022-08-22T04:20:12.828Z,39.98
2022-08-22T04:21:16.530Z,39.85
2022-08-22T04:22:18.373Z,39.87
2022-08-22T04:23:20.133Z,39.84
2022-08-22T04:24:22.890Z,39.85
2022-08-22T04:25:24.761Z,39.94
2022-08-22T04:26:26.793Z,39.84
2022-08-22T04:27:28.645Z,39.81
2022-08-22T04:28:30.597Z,39.90
2022-08-22T04:29:32.549Z,40.00
2022-08-22T04:30:34.604Z,40.00
2022-08-22T04:31:36.566Z,39.95
2022-08-22T04:32:38.513Z,39.93
2022-08-22T04:33:40.461Z,39.87
2022-08-22T04:34:42.424Z,39.81
2022-08-22T04:35:44.369Z,39.86
2022-08-22T04:36:46.525Z,39.80
2022-08-22T04:37:48.376Z,39.75
2022-08-22T04:38:50.329Z,39.82
2022-08-22T04:39:52.318Z,39.84
2022-08-22T04:40:54.540Z,39.78
2022-08-22T04:42:00.740Z,39.95
2022-08-22T04:43:00.185Z,39.94
2022-08-22T04:44:02.855Z,40.04
2022-08-22T04:45:04.824Z,39.98
2022-08-22T04:46:07.475Z,39.86
2022-08-22T04:47:09.432Z,39.85
2022-08-22T04:48:11.278Z,40.03
2022-08-22T04:49:13.230Z,39.78
2022-08-22T04:50:15.387Z,39.70
2022-08-22T04:51:17.360Z,39.57
2022-08-22T04:52:19.394Z,39.53
2022-08-22T04:53:21.354Z,39.56
2022-08-22T04:54:23.298Z,39.52
2022-08-22T04:55:25.252Z,39.56
2022-08-22T04:56:27.616Z,39.54
2022-08-22T04:57:29.574Z,39.67
2022-08-22T04:58:31.518Z,39.55
2022-08-22T04:59:33.586Z,39.38
2022-08-22T05:00:35.839Z,39.31
2022-08-22T05:01:37.748Z,39.49
2022-08-22T05:02:39.854Z,39.48
2022-08-22T05:03:44.824Z,39.57
2022-08-22T05:04:45.592Z,39.54
2022-08-22T05:05:47.540Z,39.39
2022-08-22T05:06:49.705Z,39.20
2022-08-22T05:07:51.652Z,39.06
2022-08-22T05:08:53.752Z,39.20
2022-08-22T05:09:56.175Z,39.25
2022-08-22T05:10:58.328Z,39.32
2022-08-22T05:12:00.235Z,39.47
2022-08-22T05:13:02.440Z,39.51
2022-08-22T05:14:04.389Z,39.46
2022-08-22T05:15:06.341Z,39.58
2022-08-22T05:16:10.960Z,39.63
2022-08-22T05:17:12.807Z,39.25
2022-08-22T05:18:16.500Z,39.41
2022-08-22T05:19:24.980Z,39.50
2022-08-22T05:20:22.760Z,39.52
2022-08-22T05:21:27.032Z,39.40
2022-08-22T05:22:28.714Z,39.33
2022-08-22T05:23:30.576Z,39.30
2022-08-22T05:24:32.515Z,39.33
2022-08-22T05:25:34.703Z,39.52
2022-08-22T05:26:38.572Z,39.69
2022-08-22T05:27:40.523Z,39.77
2022-08-22T05:28:42.478Z,39.60
2022-08-22T05:29:44.427Z,39.53
2022-08-22T05:30:46.388Z,39.24
2022-08-22T05:31:48.342Z,39.64
2022-08-22T05:32:50.307Z,39.76
2022-08-22T05:33:52.243Z,39.92
2022-08-22T05:34:54.193Z,39.92
2022-08-22T05:35:58.047Z,40.04
2022-08-22T05:37:00.046Z,39.66
2022-08-22T05:38:01.995Z,39.83
2022-08-22T05:39:03.948Z,39.71
2022-08-22T05:40:06.366Z,39.79
2022-08-22T05:41:08.364Z,39.88
2022-08-22T05:42:10.317Z,39.98
2022-08-22T05:43:12.181Z,39.96
2022-08-22T05:44:14.107Z,39.98
2022-08-22T05:45:15.986Z,39.78
2022-08-22T05:46:18.653Z,39.70
2022-08-22T05:47:20.645Z,39.73
2022-08-22T05:48:22.451Z,39.77
2022-08-22T05:49:24.398Z,39.76
2022-08-22T05:50:26.756Z,39.93
2022-08-22T05:51:28.717Z,40.05
2022-08-22T05:52:30.667Z,40.12
2022-08-22T05:53:33.845Z,40.09
2022-08-22T05:54:35.796Z,40.16
2022-08-22T05:55:37.752Z,40.02
2022-08-22T05:56:40.018Z,40.14
2022-08-22T05:57:41.976Z,39.78
2022-08-22T05:58:43.929Z,39.75
2022-08-22T05:59:45.881Z,39.72
2022-08-22T06:00:48.034Z,39.79
2022-08-22T06:01:50.160Z,39.96
2022-08-22T06:02:52.348Z,40.12
2022-08-22T06:03:54.302Z,40.02
2022-08-22T06:04:56.462Z,40.35
2022-08-22T06:05:59.544Z,40.23
2022-08-22T06:07:01.796Z,39.99
2022-08-22T06:08:03.752Z,39.90
2022-08-22T06:09:05.709Z,39.84
2022-08-22T06:10:08.167Z,39.77
2022-08-22T06:11:10.032Z,39.81
2022-08-22T06:12:21.633Z,39.71
2022-08-22T06:13:15.717Z,39.84
2022-08-22T06:14:19.390Z,39.89
2022-08-22T06:15:23.153Z,39.89
2022-08-22T06:16:25.944Z,40.16
2022-08-22T06:17:28.026Z,40.06
2022-08-22T06:18:29.933Z,40.24
2022-08-22T06:19:31.883Z,40.09
2022-08-22T06:20:34.041Z,40.21
2022-08-22T06:21:39.381Z,40.00
2022-08-22T06:22:39.787Z,40.06
2022-08-22T06:23:41.947Z,40.20
2022-08-22T06:24:43.898Z,40.50
2022-08-22T06:25:45.848Z,40.63
2022-08-22T06:26:48.961Z,40.54
2022-08-22T06:27:51.094Z,40.39
2022-08-22T06:28:55.300Z,40.39
2022-08-22T06:29:56.835Z,40.34
2022-08-22T06:30:58.990Z,40.61
2022-08-22T06:32:00.956Z,40.62
2022-08-22T06:33:02.819Z,40.44
2022-08-22T06:34:05.259Z,40.60
2022-08-22T06:35:07.223Z,40.63
2022-08-22T06:36:09.983Z,40.56
2022-08-22T06:37:11.937Z,40.71
2022-08-22T06:38:13.902Z,40.86
2022-08-22T06:39:15.840Z,40.85
2022-08-22T06:40:18.385Z,40.64
2022-08-22T06:41:20.567Z,40.58
2022-08-22T06:42:22.622Z,40.64
2022-08-22T06:43:24.672Z,40.74
2022-08-22T06:44:26.625Z,40.55
2022-08-22T06:45:28.580Z,40.25
2022-08-22T06:46:30.919Z,40.26
2022-08-22T06:47:32.895Z,40.31
2022-08-22T06:48:34.845Z,40.54
2022-08-22T06:49:36.801Z,40.61
2022-08-22T06:50:38.963Z,40.78
2022-08-22T06:51:40.905Z,40.83
2022-08-22T06:52:42.869Z,40.71
2022-08-22T06:53:49.835Z,40.78
2022-08-22T06:54:48.617Z,40.87
2022-08-22T06:55:50.564Z,40.49
2022-08-22T06:56:53.040Z,40.19
2022-08-22T06:57:55.046Z,40.23
2022-08-22T06:58:56.974Z,40.20
2022-08-22T06:59:59.005Z,40.47
2022-08-22T07:01:11.246Z,40.25
2022-08-22T07:02:05.987Z,40.34
2022-08-22T07:03:07.927Z,40.17
2022-08-22T07:04:09.878Z,40.17
2022-08-22T07:05:11.821Z,40.13
2022-08-22T07:06:15.625Z,40.09
2022-08-22T07:07:17.570Z,40.11
2022-08-22T07:08:19.519Z,40.32
2022-08-22T07:09:21.476Z,40.49
2022-08-22T07:10:23.745Z,40.72
2022-08-22T07:11:26.027Z,40.88
2022-08-22T07:12:28.149Z,40.62
2022-08-22T07:13:30.114Z,40.73
2022-08-22T07:14:32.055Z,40.79
2022-08-22T07:15:34.014Z,40.52
2022-08-22T07:16:36.174Z,40.60
2022-08-22T07:17:40.663Z,40.87
2022-08-22T07:18:41.912Z,41.13
2022-08-22T07:19:43.865Z,41.14
2022-08-22T07:20:46.737Z,41.20
2022-08-22T07:21:48.800Z,41.00
2022-08-22T07:22:54.028Z,41.25
2022-08-22T07:23:55.573Z,41.38
2022-08-22T07:24:57.509Z,41.58
2022-08-22T07:25:59.460Z,41.63
2022-08-22T07:27:01.530Z,41.68
2022-08-22T07:28:05.401Z,41.84
2022-08-22T07:29:11.528Z,41.97
2022-08-22T07:30:13.031Z,42.16
2022-08-22T07:31:15.164Z,41.54
2022-08-22T07:32:18.856Z,41.54
2022-08-22T07:33:26.253Z,41.59
2022-08-22T07:35:53.140Z,41.47
2022-08-22T07:36:49.812Z,41.29
2022-08-22T07:37:51.761Z,41.28
2022-08-22T07:38:53.626Z,41.28
2022-08-22T07:39:55.519Z,41.20
2022-08-22T07:40:57.618Z,41.31
2022-08-22T07:41:59.696Z,41.02
2022-08-22T07:43:01.561Z,40.70
2022-08-22T07:44:03.408Z,40.66
2022-08-22T07:45:05.255Z,40.34
2022-08-22T07:46:07.825Z,40.35
2022-08-22T07:47:10.124Z,40.07
2022-08-22T07:48:12.183Z,40.15
2022-08-22T07:49:14.067Z,40.06
2022-08-22T07:50:17.555Z,40.03
2022-08-22T07:51:19.413Z,40.16
2022-08-22T07:52:21.359Z,40.41
2022-08-22T07:53:23.505Z,40.38
2022-08-22T07:54:27.226Z,40.36
2022-08-22T07:55:29.165Z,40.52
2022-08-22T07:56:31.522Z,40.52
2022-08-22T07:57:33.466Z,40.34
2022-08-22T07:58:35.435Z,40.41
2022-08-22T07:59:37.275Z,40.27
2022-08-22T08:00:39.633Z,40.34
2022-08-22T08:01:41.516Z,40.22
2022-08-22T08:02:43.465Z,40.35
2022-08-22T08:03:45.311Z,40.41
2022-08-22T08:04:47.227Z,40.49
2022-08-22T08:05:49.414Z,40.32
2022-08-22T08:06:51.453Z,40.57
2022-08-22T08:07:53.436Z,40.53
2022-08-22T08:08:55.466Z,40.73
2022-08-22T08:09:57.428Z,40.75
2022-08-22T08:10:59.680Z,40.81
2022-08-22T08:12:01.633Z,40.91
2022-08-22T08:13:03.589Z,40.93
2022-08-22T08:14:05.543Z,41.02
2022-08-22T08:15:07.489Z,41.20
2022-08-22T08:16:10.267Z,41.20
2022-08-22T08:17:12.217Z,41.23
2022-08-22T08:18:14.173Z,41.20
2022-08-22T08:19:16.123Z,40.77
2022-08-22T08:20:19.402Z,40.46
2022-08-22T08:21:23.105Z,40.48
2022-08-22T08:22:25.048Z,40.70
2022-08-22T08:23:27.110Z,40.92
2022-08-22T08:24:29.056Z,41.20
2022-08-22T08:25:32.866Z,41.25
2022-08-22T08:26:35.521Z,41.28
2022-08-22T08:27:37.477Z,41.19
2022-08-22T08:28:39.423Z,41.14
2022-08-22T08:29:41.318Z,41.13
2022-08-22T08:30:43.324Z,40.85
2022-08-22T08:31:45.287Z,40.93
2022-08-22T08:32:47.232Z,41.01
2022-08-22T08:33:49.185Z,41.06
2022-08-22T08:34:51.182Z,41.39
2022-08-22T08:36:02.504Z,41.09
2022-08-22T08:36:57.298Z,41.15
2022-08-22T08:37:59.438Z,40.94
2022-08-22T08:39:01.528Z,40.80
2022-08-22T08:40:03.623Z,40.93
2022-08-22T08:41:05.622Z,40.76
2022-08-22T08:42:07.773Z,41.22
2022-08-22T08:43:10.640Z,40.90
2022-08-22T08:44:13.010Z,40.80
2022-08-22T08:45:14.969Z,41.08
2022-08-22T08:46:17.882Z,40.79
2022-08-22T08:47:19.791Z,40.96
2022-08-22T08:48:23.390Z,41.10
2022-08-22T08:49:25.339Z,41.01
2022-08-22T08:50:28.210Z,40.86
2022-08-22T08:51:30.573Z,40.68
2022-08-22T08:52:32.525Z,40.35
2022-08-22T08:53:34.475Z,40.36
2022-08-22T08:54:36.441Z,40.25
2022-08-22T08:55:38.384Z,40.04
2022-08-22T08:56:42.800Z,40.26
2022-08-22T08:57:44.955Z,40.27
2022-08-22T08:58:46.900Z,40.00
2022-08-22T08:59:50.700Z,40.33
2022-08-22T09:00:52.892Z,40.62
2022-08-22T09:01:55.323Z,40.56
2022-08-22T09:02:59.530Z,40.39
2022-08-22T09:04:01.475Z,40.33
2022-08-22T09:05:03.526Z,40.21
2022-08-22T09:06:07.638Z,39.91
2022-08-22T09:07:10.016Z,40.01
2022-08-22T09:08:11.999Z,40.04
2022-08-22T09:09:13.906Z,40.25
2022-08-22T09:10:18.827Z,40.23
2022-08-22T09:11:28.289Z,40.46
2022-08-22T09:12:24.784Z,40.54
2022-08-22T09:13:26.638Z,40.39
2022-08-22T09:14:28.519Z,40.58
2022-08-22T09:15:30.507Z,40.24
2022-08-22T09:16:34.299Z,40.42
2022-08-22T09:17:37.492Z,40.98
2022-08-22T09:18:39.358Z,40.46
2022-08-22T09:19:41.225Z,40.38
2022-08-22T09:20:43.263Z,40.55
2022-08-22T09:21:45.147Z,40.19
2022-08-22T09:22:50.520Z,40.09
2022-08-22T09:23:53.277Z,40.18
2022-08-22T09:24:54.658Z,39.89
2022-08-22T09:25:56.877Z,40.10
2022-08-22T09:26:59.356Z,40.16
2022-08-22T09:28:02.648Z,40.05
2022-08-22T09:29:04.521Z,39.60
2022-08-22T09:30:07.521Z,39.59
2022-08-22T09:31:18.708Z,39.79
2022-08-22T09:32:14.985Z,39.82
2022-08-22T09:33:18.678Z,40.02
2022-08-22T09:34:23.885Z,39.87
2022-08-22T09:35:24.421Z,39.96
2022-08-22T09:36:26.840Z,39.98
2022-08-22T09:37:28.753Z,39.63
2022-08-22T09:38:30.793Z,39.74
2022-08-22T09:39:32.694Z,39.70
2022-08-22T09:40:36.543Z,40.00
2022-08-22T09:41:39.426Z,40.06
2022-08-22T09:42:44.808Z,39.71
2022-08-22T09:43:48.633Z,39.54
2022-08-22T09:44:49.218Z,39.83
2022-08-22T09:45:51.119Z,39.71
2022-08-22T09:46:53.287Z,39.36
2022-08-22T09:47:57.200Z,39.80
2022-08-22T09:48:59.030Z,39.90
2022-08-22T09:50:00.904Z,39.48
2022-08-22T09:51:28.811Z,39.49
2022-08-22T09:52:15.246Z,39.23
2022-08-22T09:53:10.420Z,39.27
2022-08-22T09:54:12.374Z,39.32
2022-08-22T09:55:16.233Z,39.32
2022-08-22T09:56:18.272Z,39.37
2022-08-22T09:57:22.476Z,39.65
2022-08-22T09:58:24.688Z,39.64
2022-08-22T09:59:28.384Z,39.48
2022-08-22T10:00:30.758Z,39.76
2022-08-22T10:01:33.450Z,39.41
2022-08-22T10:02:36.113Z,39.11
2022-08-22T10:03:38.041Z,39.12
2022-08-22T10:04:40.087Z,39.33
2022-08-22T10:05:44.941Z,39.38
2022-08-22T10:06:47.193Z,39.01
2022-08-22T10:07:51.486Z,38.91
2022-08-22T10:08:54.767Z,38.86
2022-08-22T10:09:57.526Z,39.34
2022-08-22T10:11:01.737Z,39.39
2022-08-22T10:12:03.691Z,39.47
2022-08-22T10:13:10.565Z,39.46
2022-08-22T10:14:09.434Z,39.18
2022-08-22T10:15:11.381Z,39.06
2022-08-22T10:16:13.747Z,38.96
2022-08-22T10:17:15.703Z,39.52
2022-08-22T10:18:19.516Z,39.68
2022-08-22T10:19:21.858Z,39.83
2022-08-22T10:20:27.759Z,39.56
2022-08-22T10:21:29.961Z,39.38
2022-08-22T10:22:32.107Z,39.48
2022-08-22T10:23:34.168Z,39.68
2022-08-22T10:24:43.750Z,39.75
2022-08-22T10:25:42.226Z,38.93
2022-08-22T10:26:44.527Z,38.55
2022-08-22T10:27:46.376Z,38.37
2022-08-22T10:28:48.333Z,38.53
2022-08-22T10:29:50.898Z,38.67
2022-08-22T10:30:52.858Z,38.87
2022-08-22T10:31:58.705Z,38.92
2022-08-22T10:32:58.652Z,39.23
2022-08-22T10:34:00.759Z,39.06
2022-08-22T10:35:03.136Z,38.80
2022-08-22T10:36:07.115Z,38.65
2022-08-22T10:37:10.929Z,38.76
2022-08-22T10:38:12.777Z,39.00
2022-08-22T10:39:14.711Z,38.48
2022-08-22T10:40:19.457Z,38.47
2022-08-22T10:41:22.615Z,38.65
2022-08-22T10:42:24.561Z,38.91
2022-08-22T10:43:28.955Z,39.02
2022-08-22T10:44:31.236Z,38.95
2022-08-22T10:45:36.048Z,39.07
2022-08-22T10:46:37.231Z,38.90
2022-08-22T10:47:40.812Z,38.52
2022-08-22T10:48:43.073Z,38.49
2022-08-22T10:49:45.040Z,38.53
2022-08-22T10:50:47.469Z,38.35
2022-08-22T10:51:49.327Z,38.58
2022-08-22T10:52:51.167Z,38.57
2022-08-22T10:53:53.030Z,38.22
2022-08-22T10:54:56.743Z,38.18
2022-08-22T10:55:58.611Z,38.43
2022-08-22T10:57:00.740Z,38.28
2022-08-22T10:58:02.807Z,38.02
2022-08-22T10:59:05.775Z,37.95
2022-08-22T11:00:08.181Z,38.12
2022-08-22T11:01:38.594Z,38.32
2022-08-22T11:02:13.789Z,38.24
2022-08-22T11:03:21.292Z,38.17
2022-08-22T11:04:19.396Z,37.91
2022-08-22T11:05:23.160Z,37.86
2022-08-22T11:06:26.675Z,37.86
2022-08-22T11:07:28.506Z,38.04
2022-08-22T11:08:30.335Z,37.89
2022-08-22T11:09:36.274Z,37.89
2022-08-22T11:10:37.861Z,37.69
2022-08-22T11:11:39.714Z,37.91
2022-08-22T11:12:43.895Z,37.86
2022-08-22T11:13:46.504Z,37.78
2022-08-22T11:14:50.290Z,37.82
2022-08-22T11:15:52.234Z,37.68
2022-08-22T11:16:55.081Z,37.77
2022-08-22T11:17:57.466Z,37.81
2022-08-22T11:19:02.950Z,38.04
2022-08-22T11:20:03.327Z,38.00
2022-08-22T11:21:07.345Z,37.63
2022-08-22T11:22:10.033Z,37.73
2022-08-22T11:23:12.669Z,37.79
2022-08-22T11:24:17.293Z,38.02
2022-08-22T11:25:26.900Z,38.19
2022-08-22T11:26:30.120Z,37.66
2022-08-22T11:27:37.691Z,37.87
2022-08-22T11:28:29.831Z,38.20
2022-08-22T11:29:33.182Z,37.81
2022-08-22T11:30:36.419Z,37.86
2022-08-22T11:31:40.070Z,37.97
2022-08-22T11:32:44.059Z,37.59
2022-08-22T11:33:47.038Z,37.92
2022-08-22T11:34:49.606Z,37.67
2022-08-22T11:35:52.223Z,37.46
2022-08-22T11:36:54.248Z,36.83
2022-08-22T11:37:56.526Z,36.92
2022-08-22T11:38:58.582Z,37.16
2022-08-22T11:40:02.475Z,37.36
2022-08-22T11:41:04.391Z,36.95
2022-08-22T11:42:07.597Z,36.82
2022-08-22T11:43:17.962Z,36.68
2022-08-22T11:44:13.126Z,36.79
2022-08-22T11:45:16.400Z,36.98
2022-08-22T11:46:20.030Z,36.46
2022-08-22T11:47:26.561Z,36.57
2022-08-22T11:48:25.842Z,36.89
2022-08-22T11:49:27.698Z,37.17
2022-08-22T11:50:31.997Z,37.15
2022-08-22T11:51:35.688Z,36.89
2022-08-22T11:52:37.774Z,36.56
2022-08-22T11:53:39.653Z,36.53
2022-08-22T11:54:42.034Z,36.67
2022-08-22T11:55:44.059Z,36.83
2022-08-22T11:56:46.214Z,37.04
2022-08-22T11:57:49.267Z,37.11
2022-08-22T11:58:51.194Z,37.00
2022-08-22T11:59:53.250Z,36.88
2022-08-22T12:00:55.837Z,36.95
2022-08-22T12:01:57.822Z,36.88
2022-08-22T12:03:01.183Z,36.83
2022-08-22T12:04:03.622Z,37.04
2022-08-22T12:05:05.583Z,36.90
2022-08-22T12:06:07.868Z,36.52
2022-08-22T12:07:09.782Z,36.66
2022-08-22T12:08:11.747Z,36.55
2022-08-22T12:09:13.689Z,36.53
2022-08-22T12:10:16.559Z,36.62
2022-08-22T12:11:18.431Z,36.46
2022-08-22T12:12:20.474Z,36.74
2022-08-22T12:13:34.751Z,37.11
2022-08-22T12:14:27.431Z,37.11
2022-08-22T12:15:30.634Z,36.41
2022-08-22T12:16:34.778Z,36.29
2022-08-22T12:17:55.470Z,35.88
2022-08-22T12:18:40.493Z,35.58
2022-08-22T12:19:59.078Z,35.38
2022-08-22T12:20:46.640Z,35.00
2022-08-22T12:21:49.735Z,35.25
2022-08-22T12:22:51.671Z,35.55
2022-08-22T12:23:53.656Z,35.49
2022-08-22T12:24:57.781Z,35.45
2022-08-22T12:25:59.271Z,35.23
2022-08-22T12:27:01.838Z,35.05
2022-08-22T12:29:33.454Z,35.32
2022-08-22T12:30:30.726Z,34.66
2022-08-22T12:31:33.210Z,34.30
2022-08-22T12:32:35.150Z,34.43
2022-08-22T12:33:37.510Z,33.50
2022-08-22T12:34:39.466Z,33.32
2022-08-22T12:35:43.155Z,33.24
2022-08-22T12:36:45.639Z,32.96
2022-08-22T12:37:52.680Z,32.93
2022-08-22T12:38:53.016Z,32.90
2022-08-22T12:39:55.010Z,32.82
2022-08-22T12:40:57.442Z,32.72
2022-08-22T12:42:00.240Z,33.04
2022-08-22T12:43:04.001Z,33.34
2022-08-22T12:44:07.765Z,33.22
2022-08-22T12:45:11.602Z,33.41
2022-08-22T12:46:14.684Z,33.82
2022-08-22T12:47:17.320Z,33.74
2022-08-22T12:48:19.519Z,33.58
2022-08-22T12:49:21.859Z,33.63
2022-08-22T12:50:24.037Z,33.58
2022-08-22T12:51:25.966Z,33.49
2022-08-22T12:52:29.762Z,33.22
2022-08-22T12:53:31.717Z,33.27
2022-08-22T12:54:33.673Z,33.40
2022-08-22T12:55:35.628Z,32.36
2022-08-22T12:56:37.882Z,32.47
2022-08-22T12:57:41.677Z,32.13
2022-08-22T12:58:45.067Z,32.46
2022-08-22T12:59:48.863Z,32.72
2022-08-22T13:00:52.537Z,32.87
2022-08-22T13:01:55.734Z,32.51
2022-08-22T13:02:58.070Z,32.54
2022-08-22T13:04:00.250Z,32.54
2022-08-22T13:05:02.203Z,32.41
2022-08-22T13:06:04.367Z,32.03
2022-08-22T13:07:08.156Z,31.87
2022-08-22T13:08:10.121Z,31.34
2022-08-22T13:09:12.070Z,31.22
2022-08-22T13:10:17.421Z,31.59
2022-08-22T13:11:23.225Z,31.83
2022-08-22T13:12:24.511Z,31.62
2022-08-22T13:13:31.684Z,31.50
2022-08-22T13:14:32.372Z,31.88
2022-08-22T13:15:34.357Z,31.82
2022-08-22T13:16:38.466Z,32.04
2022-08-22T13:17:42.328Z,32.01
2022-08-22T13:18:45.198Z,31.97
2022-08-22T13:19:47.251Z,31.97
2022-08-22T13:20:49.350Z,31.69
2022-08-22T13:21:52.557Z,31.63
2022-08-22T13:22:54.595Z,31.19